createdAt,value
2022-12-12T00:00:45.722Z,12.70
2022-12-12T00:03:13.821Z,13.43
2022-12-12T00:05:42.135Z,12.43
2022-12-12T00:08:09.944Z,12.93
2022-12-12T00:10:39.104Z,13.67
2022-12-12T00:13:07.077Z,12.37
2022-12-12T00:15:34.820Z,12.90
2022-12-12T00:18:02.644Z,13.20
2022-12-12T00:20:30.497Z,12.37
2022-12-12T00:22:58.269Z,14.00
2022-12-12T00:25:26.024Z,13.10
2022-12-12T00:27:55.186Z,13.47
2022-12-12T00:30:23.370Z,13.33
2022-12-12T00:32:51.115Z,14.13
2022-12-12T00:35:19.049Z,14.10
2022-12-12T00:37:46.822Z,13.07
2022-12-12T00:40:14.773Z,12.87
2022-12-12T00:42:42.814Z,13.20
2022-12-12T00:45:12.978Z,12.87
2022-12-12T00:47:40.865Z,12.13
2022-12-12T00:50:09.761Z,12.63
2022-12-12T00:52:37.546Z,14.37
2022-12-12T00:55:06.199Z,13.67
2022-12-12T00:57:34.391Z,13.00
2022-12-12T01:00:02.096Z,13.93
2022-12-12T01:02:31.480Z,13.17
2022-12-12T01:04:59.271Z,12.73
2022-12-12T01:07:27.097Z,12.50
2022-12-12T01:09:54.849Z,12.93
2022-12-12T01:12:22.604Z,13.23
2022-12-12T01:14:50.343Z,12.17
2022-12-12T01:17:18.172Z,10.70
2022-12-12T01:19:47.300Z,12.27
2022-12-12T01:22:15.395Z,12.03
2022-12-12T01:24:43.442Z,12.50
2022-12-12T01:27:11.514Z,12.73
2022-12-12T01:29:39.335Z,12.50
2022-12-12T01:32:07.148Z,11.37
2022-12-12T01:34:34.924Z,12.47
2022-12-12T01:37:04.217Z,13.30
2022-12-12T01:39:32.045Z,11.70
2022-12-12T01:41:59.806Z,12.17
2022-12-12T01:44:44.520Z,12.50
2022-12-12T01:47:14.131Z,12.67
2022-12-12T01:49:44.619Z,14.10
2022-12-12T01:52:17.950Z,13.93
2022-12-12T01:54:48.883Z,13.77
2022-12-12T01:57:22.344Z,12.27
2022-12-12T01:59:50.282Z,13.10
2022-12-12T02:02:18.635Z,12.47
2022-12-12T02:04:46.848Z,12.87
2022-12-12T02:07:17.809Z,12.67
2022-12-12T02:09:47.264Z,13.73
2022-12-12T02:12:15.965Z,12.13
2022-12-12T02:14:49.008Z,12.17
2022-12-12T02:17:33.992Z,12.50
2022-12-12T02:20:43.524Z,13.40
2022-12-12T02:23:42.912Z,12.97
2022-12-12T02:26:49.079Z,12.87
2022-12-12T02:30:04.194Z,12.07
2022-12-12T02:32:50.885Z,10.57
2022-12-12T02:35:27.968Z,11.13
2022-12-12T02:38:07.964Z,10.77
2022-12-12T02:40:43.805Z,12.33
2022-12-12T02:43:17.507Z,12.77
2022-12-12T02:45:49.513Z,12.47
2022-12-12T02:48:25.026Z,11.57
2022-12-12T02:50:57.326Z,11.33
2022-12-12T02:53:25.638Z,11.97
2022-12-12T02:56:03.485Z,13.33
2022-12-12T02:58:32.270Z,12.70
2022-12-12T03:01:12.320Z,11.27
2022-12-12T03:04:03.207Z,11.37
2022-12-12T03:07:01.950Z,11.70
2022-12-12T03:09:42.300Z,11.07
2022-12-12T03:12:13.910Z,11.53
2022-12-12T03:14:54.345Z,10.67
2022-12-12T03:17:29.888Z,11.83
2022-12-12T03:20:04.701Z,12.47
2022-12-12T03:22:39.102Z,11.77
2022-12-12T03:25:13.238Z,10.73
2022-12-12T03:27:48.848Z,12.37
2022-12-12T03:30:18.855Z,12.23
2022-12-12T03:32:53.238Z,11.33
2022-12-12T03:35:26.513Z,11.13
2022-12-12T03:37:59.338Z,10.43
2022-12-12T03:40:32.742Z,11.20
2022-12-12T03:43:04.366Z,11.33
2022-12-12T03:45:38.123Z,12.33
2022-12-12T03:48:12.214Z,10.47
2022-12-12T03:50:45.811Z,11.17
2022-12-12T03:53:19.087Z,12.23
2022-12-12T03:55:52.203Z,12.30
2022-12-12T03:58:24.883Z,12.03
2022-12-12T04:00:55.898Z,10.07
2022-12-12T04:03:28.845Z,11.27
2022-12-12T04:06:22.269Z,11.77
2022-12-12T04:09:04.952Z,11.83
2022-12-12T04:11:55.997Z,10.87
2022-12-12T04:14:41.944Z,12.13
2022-12-12T04:17:14.147Z,11.90
2022-12-12T04:20:08.984Z,11.17
2022-12-12T04:23:03.221Z,11.10
2022-12-12T04:25:59.570Z,10.63
2022-12-12T04:28:29.621Z,11.47
2022-12-12T04:31:02.906Z,10.80
2022-12-12T04:33:42.417Z,11.30
2022-12-12T04:36:13.584Z,10.93
2022-12-12T04:38:44.164Z,9.87
2022-12-12T04:41:15.206Z,12.13
2022-12-12T04:43:47.692Z,11.23
2022-12-12T04:46:18.599Z,10.73
2022-12-12T04:48:53.603Z,10.67
2022-12-12T04:51:29.459Z,10.90
2022-12-12T04:54:04.436Z,11.30
2022-12-12T04:56:35.358Z,10.70
2022-12-12T04:59:04.136Z,10.30
2022-12-12T05:01:39.657Z,10.90
2022-12-12T05:04:13.777Z,11.03
2022-12-12T05:06:46.186Z,10.20
2022-12-12T05:09:17.576Z,10.37
2022-12-12T05:11:45.535Z,11.03
2022-12-12T05:14:17.087Z,9.97
2022-12-12T05:16:48.445Z,11.47
2022-12-12T05:19:16.281Z,9.40
2022-12-12T05:21:44.077Z,11.17
2022-12-12T05:24:11.831Z,10.70
2022-12-12T05:26:41.073Z,9.87
2022-12-12T05:29:08.814Z,10.70
2022-12-12T05:31:36.762Z,9.83
2022-12-12T05:34:05.107Z,10.13
2022-12-12T05:36:33.059Z,9.77
2022-12-12T05:39:00.943Z,9.83
2022-12-12T05:41:28.732Z,10.93
2022-12-12T05:43:57.912Z,10.23
2022-12-12T05:46:26.045Z,11.27
2022-12-12T05:48:53.820Z,12.03
2022-12-12T05:51:22.425Z,10.17
2022-12-12T05:53:50.426Z,10.97
2022-12-12T05:56:18.234Z,12.87
2022-12-12T05:58:46.016Z,10.73
2022-12-12T06:01:15.178Z,10.93
2022-12-12T06:03:43.068Z,10.23
2022-12-12T06:06:10.999Z,11.90
2022-12-12T06:08:38.772Z,10.50
2022-12-12T06:11:07.609Z,11.93
2022-12-12T06:13:35.914Z,11.43
2022-12-12T06:16:07.453Z,11.07
2022-12-12T06:18:36.731Z,12.03
2022-12-12T06:21:06.211Z,10.53
2022-12-12T06:23:37.197Z,11.97
2022-12-12T06:26:05.255Z,11.37
2022-12-12T06:28:33.443Z,10.23
2022-12-12T06:31:02.651Z,11.40
2022-12-12T06:33:32.152Z,11.37
2022-12-12T06:36:03.343Z,10.67
2022-12-12T06:38:32.148Z,11.07
2022-12-12T06:41:00.109Z,10.50
2022-12-12T06:43:27.877Z,11.30
2022-12-12T06:46:02.004Z,10.17
2022-12-12T06:48:30.721Z,10.17
2022-12-12T06:50:58.821Z,11.23
2022-12-12T06:53:28.025Z,10.27
2022-12-12T06:55:55.819Z,11.57
2022-12-12T06:58:23.651Z,11.60
2022-12-12T07:00:52.541Z,11.07
2022-12-12T07:03:20.936Z,11.17
2022-12-12T07:05:48.908Z,10.97
2022-12-12T07:08:17.650Z,11.20
2022-12-12T07:10:48.585Z,11.77
2022-12-12T07:13:16.591Z,11.20
2022-12-12T07:15:45.588Z,10.70
2022-12-12T07:18:13.748Z,11.50
2022-12-12T07:20:42.141Z,11.23
2022-12-12T07:23:10.794Z,11.70
2022-12-12T07:25:39.711Z,11.67
2022-12-12T07:28:10.124Z,11.50
2022-12-12T07:30:40.696Z,11.37
2022-12-12T07:33:09.001Z,11.07
2022-12-12T07:35:37.165Z,11.37
2022-12-12T07:38:05.780Z,10.90
2022-12-12T07:40:34.074Z,11.97
2022-12-12T07:43:02.168Z,11.20
2022-12-12T07:45:31.698Z,12.43
2022-12-12T07:47:59.528Z,11.17
2022-12-12T07:50:27.276Z,12.60
2022-12-12T07:52:55.049Z,11.70
2022-12-12T07:55:22.826Z,11.20
2022-12-12T07:57:50.578Z,11.43
2022-12-12T08:00:22.484Z,11.00
2022-12-12T08:02:51.584Z,11.50
2022-12-12T08:05:19.469Z,11.90
2022-12-12T08:07:47.446Z,10.03
2022-12-12T08:10:15.474Z,11.27
2022-12-12T08:12:43.430Z,12.70
2022-12-12T08:15:16.772Z,12.30
2022-12-12T08:17:44.604Z,10.73
2022-12-12T08:20:13.964Z,11.90
2022-12-12T08:22:42.142Z,11.70
2022-12-12T08:25:10.733Z,11.47
2022-12-12T08:27:38.988Z,11.57
2022-12-12T08:30:08.595Z,11.63
2022-12-12T08:32:37.214Z,11.33
2022-12-12T08:35:05.803Z,11.13
2022-12-12T08:37:35.155Z,11.43
2022-12-12T08:40:03.273Z,11.50
2022-12-12T08:42:31.096Z,12.00
2022-12-12T08:44:58.869Z,12.20
2022-12-12T08:47:27.186Z,10.80
2022-12-12T08:49:55.021Z,11.57
2022-12-12T08:52:22.784Z,10.87
2022-12-12T08:54:51.949Z,11.13
2022-12-12T08:57:25.644Z,12.20
2022-12-12T08:59:53.940Z,12.00
2022-12-12T09:02:21.831Z,11.83
2022-12-12T09:04:49.645Z,11.83
2022-12-12T09:07:17.472Z,12.00
2022-12-12T09:09:45.513Z,10.37
2022-12-12T09:12:15.546Z,12.83
2022-12-12T09:14:43.314Z,12.27
2022-12-12T09:17:11.122Z,12.40
2022-12-12T09:19:39.178Z,11.40
2022-12-12T09:22:06.963Z,12.27
2022-12-12T09:24:34.719Z,12.57
2022-12-12T09:27:02.619Z,11.20
2022-12-12T09:29:31.993Z,11.97
2022-12-12T09:31:59.912Z,11.97
2022-12-12T09:34:28.050Z,12.60
2022-12-12T09:36:55.853Z,12.40
2022-12-12T09:39:23.668Z,12.00
2022-12-12T09:41:51.535Z,11.87
2022-12-12T09:44:22.455Z,12.47
2022-12-12T09:46:55.490Z,11.20
2022-12-12T09:49:28.313Z,12.00
2022-12-12T09:51:58.524Z,11.83
2022-12-12T09:54:27.794Z,11.97
2022-12-12T09:57:06.216Z,10.43
2022-12-12T09:59:41.845Z,10.63
2022-12-12T10:02:29.101Z,10.67
2022-12-12T10:05:02.702Z,9.83
2022-12-12T10:07:37.645Z,10.80
2022-12-12T10:10:18.429Z,11.57
2022-12-12T10:12:47.628Z,10.80
2022-12-12T10:15:26.310Z,10.77
2022-12-12T10:17:58.400Z,10.83
2022-12-12T10:20:28.763Z,10.60
2022-12-12T10:23:03.276Z,11.67
2022-12-12T10:25:40.660Z,12.10
2022-12-12T10:28:12.844Z,11.73
2022-12-12T10:30:55.670Z,10.23
2022-12-12T10:33:33.418Z,11.63
2022-12-12T10:36:10.719Z,11.40
2022-12-12T10:39:00.030Z,10.93
2022-12-12T10:41:35.348Z,11.20
2022-12-12T10:44:06.726Z,9.07
2022-12-12T10:46:41.291Z,9.27
2022-12-12T10:49:16.258Z,10.40
2022-12-12T10:51:46.710Z,10.30
2022-12-12T10:54:19.344Z,10.30
2022-12-12T10:57:07.905Z,11.57
2022-12-12T10:59:46.305Z,9.50
2022-12-12T11:02:36.835Z,10.13
2022-12-12T11:05:17.354Z,10.00
2022-12-12T11:07:47.551Z,10.30
2022-12-12T11:10:33.449Z,10.83
2022-12-12T11:13:03.925Z,10.83
2022-12-12T11:15:39.684Z,10.13
2022-12-12T11:18:08.712Z,10.60
2022-12-12T11:20:45.937Z,9.67
2022-12-12T11:23:19.608Z,10.57
2022-12-12T11:25:55.224Z,11.50
2022-12-12T11:28:25.488Z,9.87
2022-12-12T11:30:55.680Z,10.50
2022-12-12T11:33:32.052Z,9.20
2022-12-12T11:36:06.440Z,9.27
2022-12-12T11:38:40.847Z,10.00
2022-12-12T11:41:11.462Z,9.90
2022-12-12T11:43:55.171Z,9.60
2022-12-12T11:46:26.445Z,9.03
2022-12-12T11:49:00.781Z,10.20
2022-12-12T11:51:35.972Z,8.73
2022-12-12T11:54:05.918Z,8.73
2022-12-12T11:56:43.097Z,9.23
2022-12-12T11:59:55.860Z,8.73
2022-12-12T12:02:57.062Z,9.30
2022-12-12T12:05:33.165Z,9.50
2022-12-12T12:08:17.191Z,9.57
2022-12-12T12:10:57.053Z,9.10
2022-12-12T12:13:41.875Z,8.93
2022-12-12T12:16:17.086Z,5.63
2022-12-12T12:18:59.534Z,8.80
2022-12-12T12:21:38.393Z,9.00
2022-12-12T12:24:33.849Z,8.83
2022-12-12T12:27:09.885Z,8.93
2022-12-12T12:29:53.312Z,9.13
2022-12-12T12:32:29.824Z,8.80
2022-12-12T12:35:11.641Z,8.97
2022-12-12T12:37:54.147Z,8.73
2022-12-12T12:40:39.878Z,8.90
2022-12-12T12:43:30.891Z,8.53
2022-12-12T12:46:08.520Z,7.33
2022-12-12T12:48:40.313Z,9.33
2022-12-12T12:51:14.632Z,9.57
2022-12-12T12:53:47.450Z,8.77
2022-12-12T12:56:26.256Z,8.77
2022-12-12T12:58:59.188Z,9.03
2022-12-12T13:01:30.485Z,9.47
2022-12-12T13:04:04.002Z,9.43
2022-12-12T13:06:40.358Z,8.80
2022-12-12T13:09:22.901Z,7.67
2022-12-12T13:12:00.257Z,9.13
2022-12-12T13:14:38.611Z,8.57
2022-12-12T13:17:09.217Z,8.47
2022-12-12T13:19:40.653Z,7.87
2022-12-12T13:22:14.978Z,8.50
2022-12-12T13:24:51.587Z,9.53
2022-12-12T13:27:29.617Z,9.53
2022-12-12T13:30:02.981Z,8.67
2022-12-12T13:32:54.315Z,9.40
2022-12-12T13:35:29.367Z,9.23
2022-12-12T13:37:58.002Z,9.60
2022-12-12T13:40:30.565Z,8.57
2022-12-12T13:43:09.061Z,8.00
2022-12-12T13:45:43.915Z,7.23
2022-12-12T13:48:41.476Z,7.57
2022-12-12T13:51:41.303Z,7.67
2022-12-12T13:54:51.366Z,7.93
2022-12-12T13:57:31.668Z,7.50
2022-12-12T14:00:31.155Z,7.47
2022-12-12T14:03:25.451Z,5.13
2022-12-12T14:05:54.452Z,6.93
2022-12-12T14:08:32.529Z,8.20
2022-12-12T14:11:03.539Z,7.87
2022-12-12T14:13:45.382Z,7.03
2022-12-12T14:16:26.240Z,7.50
2022-12-12T14:19:35.637Z,8.00
2022-12-12T14:22:03.633Z,7.20
2022-12-12T14:25:05.667Z,6.47
2022-12-12T14:28:15.740Z,7.03
2022-12-12T14:30:52.729Z,7.30
2022-12-12T14:33:58.783Z,7.40
2022-12-12T14:36:52.147Z,7.03
2022-12-12T14:39:52.432Z,6.40
2022-12-12T14:42:27.872Z,6.77
2022-12-12T14:45:30.256Z,6.97
2022-12-12T14:48:19.689Z,6.87
2022-12-12T14:50:51.757Z,7.60
2022-12-12T14:53:23.841Z,6.67
2022-12-12T14:55:54.913Z,6.70
2022-12-12T14:58:26.439Z,7.10
2022-12-12T15:00:58.047Z,6.23
2022-12-12T15:03:33.379Z,6.57
2022-12-12T15:06:27.911Z,5.77
2022-12-12T15:08:59.217Z,6.50
2022-12-12T15:11:31.666Z,5.93
2022-12-12T15:14:01.007Z,6.67
2022-12-12T15:16:36.902Z,7.03
2022-12-12T15:19:05.207Z,6.00
2022-12-12T15:21:33.765Z,6.27
2022-12-12T15:24:02.902Z,6.20
2022-12-12T15:26:31.188Z,6.33
2022-12-12T15:28:59.306Z,6.47
2022-12-12T15:31:27.192Z,6.33
2022-12-12T15:33:55.206Z,6.07
2022-12-12T15:36:27.696Z,6.20
2022-12-12T15:39:15.608Z,5.67
2022-12-12T15:41:45.329Z,6.13
2022-12-12T15:44:19.121Z,6.70
2022-12-12T15:46:48.694Z,6.17
2022-12-12T15:49:39.689Z,6.10
2022-12-12T15:52:19.495Z,6.70
2022-12-12T15:54:51.248Z,6.43
2022-12-12T15:57:21.628Z,6.60
2022-12-12T15:59:55.596Z,6.57
2022-12-12T16:02:26.274Z,6.37
2022-12-12T16:05:04.813Z,6.23
2022-12-12T16:07:37.470Z,6.53
2022-12-12T16:10:23.019Z,6.40
2022-12-12T16:13:02.879Z,6.03
2022-12-12T16:15:35.007Z,5.73
2022-12-12T16:18:07.066Z,5.47
2022-12-12T16:20:35.974Z,5.37
2022-12-12T16:23:18.029Z,5.53
2022-12-12T16:25:47.441Z,6.00
2022-12-12T16:28:25.253Z,5.93
2022-12-12T16:30:57.345Z,5.87
2022-12-12T16:33:31.354Z,6.63
2022-12-12T16:36:01.641Z,7.00
2022-12-12T16:38:30.792Z,6.57
2022-12-12T16:41:02.984Z,6.37
2022-12-12T16:43:30.971Z,6.97
2022-12-12T16:45:59.344Z,7.07
2022-12-12T16:48:32.544Z,6.23
2022-12-12T16:51:03.685Z,6.13
2022-12-12T16:53:31.553Z,7.13
2022-12-12T16:56:01.059Z,6.60
2022-12-12T16:58:29.015Z,6.90
2022-12-12T17:00:58.951Z,7.23
2022-12-12T17:03:27.281Z,6.70
2022-12-12T17:05:55.300Z,8.20
2022-12-12T17:08:23.441Z,6.53
2022-12-12T17:10:53.412Z,7.30
2022-12-12T17:13:42.959Z,7.70
2022-12-12T17:16:11.099Z,7.67
2022-12-12T17:18:39.060Z,7.83
2022-12-12T17:21:07.283Z,8.13
2022-12-12T17:23:35.474Z,7.77
2022-12-12T17:26:05.066Z,7.27
2022-12-12T17:28:34.533Z,7.27
2022-12-12T17:31:07.945Z,7.17
2022-12-12T17:33:45.957Z,7.83
2022-12-12T17:36:17.724Z,7.40
2022-12-12T17:38:45.909Z,8.57
2022-12-12T17:41:13.676Z,7.90
2022-12-12T17:43:42.274Z,7.17
2022-12-12T17:46:17.451Z,8.20
2022-12-12T17:48:47.329Z,8.30
2022-12-12T17:51:17.128Z,7.67
2022-12-12T17:53:45.141Z,8.10
2022-12-12T17:56:14.901Z,7.70
2022-12-12T17:58:44.757Z,9.07
2022-12-12T18:01:15.802Z,8.60
2022-12-12T18:03:45.390Z,9.03
2022-12-12T18:06:14.510Z,8.33
2022-12-12T18:08:42.621Z,7.87
2022-12-12T18:11:12.986Z,9.13
2022-12-12T18:13:41.790Z,8.40
2022-12-12T18:16:12.934Z,8.50
2022-12-12T18:18:43.082Z,8.83
2022-12-12T18:21:23.534Z,8.67
2022-12-12T18:24:00.981Z,8.43
2022-12-12T18:26:29.154Z,8.57
2022-12-12T18:28:58.737Z,9.73
2022-12-12T18:31:26.954Z,8.50
2022-12-12T18:33:56.828Z,9.13
2022-12-12T18:36:26.924Z,9.27
2022-12-12T18:38:56.298Z,9.77
2022-12-12T18:41:26.375Z,8.83
2022-12-12T18:43:54.219Z,8.03
2022-12-12T18:46:24.365Z,9.93
2022-12-12T18:48:52.175Z,8.70
2022-12-12T18:51:23.488Z,8.90
2022-12-12T18:53:52.572Z,9.73
2022-12-12T18:56:22.636Z,8.60
2022-12-12T18:58:50.790Z,9.27
2022-12-12T19:01:21.224Z,9.10
2022-12-12T19:03:51.116Z,10.27
2022-12-12T19:06:22.995Z,9.17
2022-12-12T19:08:51.868Z,10.33
2022-12-12T19:11:19.919Z,9.60
2022-12-12T19:13:47.866Z,8.63
2022-12-12T19:16:18.341Z,10.23
2022-12-12T19:18:46.757Z,9.73
2022-12-12T19:21:16.688Z,9.27
2022-12-12T19:23:46.306Z,9.30
2022-12-12T19:26:15.504Z,10.33
2022-12-12T19:28:43.800Z,11.03
2022-12-12T19:31:14.800Z,10.40
2022-12-12T19:33:43.193Z,10.27
2022-12-12T19:36:13.078Z,8.67
2022-12-12T19:38:40.950Z,9.90
2022-12-12T19:41:11.837Z,8.90
2022-12-12T19:43:39.628Z,9.10
2022-12-12T19:46:10.531Z,10.50
2022-12-12T19:48:39.409Z,10.77
2022-12-12T19:51:09.860Z,9.53
2022-12-12T19:53:39.234Z,10.23
2022-12-12T19:56:07.808Z,9.10
2022-12-12T19:58:38.919Z,9.60
2022-12-12T20:01:09.981Z,8.70
2022-12-12T20:03:38.218Z,9.67
2022-12-12T20:06:08.248Z,8.87
2022-12-12T20:08:37.136Z,10.70
2022-12-12T20:11:06.000Z,9.80
2022-12-12T20:13:34.553Z,9.70
2022-12-12T20:16:08.777Z,10.07
2022-12-12T20:18:37.420Z,9.80
2022-12-12T20:21:06.673Z,10.40
2022-12-12T20:23:43.811Z,10.80
2022-12-12T20:26:18.427Z,10.00
2022-12-12T20:28:46.280Z,9.90
2022-12-12T20:31:18.095Z,10.13
2022-12-12T20:33:46.714Z,9.80
2022-12-12T20:36:17.411Z,9.80
2022-12-12T20:38:46.008Z,10.10
2022-12-12T20:41:16.079Z,10.90
2022-12-12T20:43:44.968Z,9.90
2022-12-12T20:46:13.738Z,9.20
2022-12-12T20:48:43.887Z,9.60
2022-12-12T20:51:45.644Z,11.40
2022-12-12T20:54:02.408Z,10.43
2022-12-12T20:56:30.650Z,9.63
2022-12-12T20:59:01.132Z,10.90
2022-12-12T21:01:30.610Z,11.63
2022-12-12T21:04:01.364Z,10.47
2022-12-12T21:06:31.391Z,11.67
2022-12-12T21:09:01.531Z,11.23
2022-12-12T21:11:30.343Z,11.17
2022-12-12T21:13:58.324Z,10.33
2022-12-12T21:16:29.994Z,11.00
2022-12-12T21:19:01.536Z,10.03
2022-12-12T21:21:31.154Z,11.70
2022-12-12T21:24:02.033Z,10.57
2022-12-12T21:26:31.885Z,10.77
2022-12-12T21:29:01.810Z,11.77
2022-12-12T21:31:32.077Z,11.23
2022-12-12T21:34:02.200Z,11.77
2022-12-12T21:36:31.883Z,9.70
2022-12-12T21:39:00.932Z,12.00
2022-12-12T21:41:29.427Z,12.00
2022-12-12T21:43:59.533Z,10.53
2022-12-12T21:46:29.832Z,10.63
2022-12-12T21:49:16.839Z,10.83
2022-12-12T21:51:46.744Z,9.87
2022-12-12T21:54:15.853Z,10.40
2022-12-12T21:56:44.408Z,11.50
2022-12-12T21:59:13.571Z,11.70
2022-12-12T22:01:41.844Z,12.20
2022-12-12T22:04:11.625Z,11.87
2022-12-12T22:06:39.764Z,10.87
2022-12-12T22:09:11.171Z,12.60
2022-12-12T22:11:49.047Z,11.23
2022-12-12T22:14:19.387Z,12.20
2022-12-12T22:16:48.436Z,11.83
2022-12-12T22:19:17.306Z,11.80
2022-12-12T22:21:46.343Z,11.63
2022-12-12T22:24:16.125Z,11.93
2022-12-12T22:26:45.716Z,11.57
2022-12-12T22:29:15.599Z,12.23
2022-12-12T22:31:45.197Z,12.63
2022-12-12T22:34:15.886Z,11.97
2022-12-12T22:36:45.776Z,12.97
2022-12-12T22:39:17.206Z,15.17
2022-12-12T22:41:45.523Z,11.53
2022-12-12T22:44:15.705Z,11.03
2022-12-12T22:46:44.600Z,12.10
2022-12-12T22:49:14.563Z,13.77
2022-12-12T22:51:43.543Z,13.13
2022-12-12T22:54:11.916Z,13.03
2022-12-12T22:56:42.053Z,12.80
2022-12-12T22:59:11.534Z,12.50
2022-12-12T23:01:39.810Z,12.50
2022-12-12T23:04:08.199Z,13.37
2022-12-12T23:06:37.408Z,12.30
2022-12-12T23:09:07.676Z,12.33
2022-12-12T23:11:36.632Z,13.73
2022-12-12T23:14:07.674Z,14.13
2022-12-12T23:16:36.309Z,13.50
2022-12-12T23:19:06.395Z,14.40
2022-12-12T23:21:35.951Z,13.73
2022-12-12T23:24:04.500Z,13.30
2022-12-12T23:26:35.159Z,13.50
2022-12-12T23:29:03.507Z,12.53
2022-12-12T23:31:35.174Z,11.80
2022-12-12T23:34:06.356Z,12.20
2022-12-12T23:36:34.135Z,11.53
2022-12-12T23:39:06.125Z,13.07
2022-12-12T23:41:34.908Z,12.80
2022-12-12T23:44:02.934Z,11.73
2022-12-12T23:46:32.476Z,12.13
2022-12-12T23:49:02.463Z,12.03
2022-12-12T23:51:32.556Z,11.23
2022-12-12T23:54:02.401Z,12.67
2022-12-12T23:56:31.542Z,11.33
2022-12-12T23:59:00.598Z,11.63
